sensor_id;sensor_type;location;lat;lon;timestamp;pressure;altitude;pressure_sealevel;temperature;humidity
39769;BME280;38939;47.824;14.642;2022-07-10T00:00:06;97322.38;;;17.35;85.08
39769;BME280;38939;47.824;14.642;2022-07-10T00:01:10;97319.75;;;17.35;85.09
39769;BME280;38939;47.824;14.642;2022-07-10T00:02:12;97312.41;;;17.37;84.70
39769;BME280;38939;47.824;14.642;2022-07-10T00:03:14;97315.03;;;17.37;84.93
39769;BME280;38939;47.824;14.642;2022-07-10T00:04:16;97312.41;;;17.37;85.03
39769;BME280;38939;47.824;14.642;2022-07-10T00:05:18;97316.63;;;17.38;85.06
39769;BME280;38939;47.824;14.642;2022-07-10T00:06:20;97313.44;;;17.36;85.22
39769;BME280;38939;47.824;14.642;2022-07-10T00:07:22;97319.97;;;17.34;85.07
39769;BME280;38939;47.824;14.642;2022-07-10T00:08:24;97315.97;;;17.31;85.13
39769;BME280;38939;47.824;14.642;2022-07-10T00:09:27;97316.22;;;17.30;84.98
39769;BME280;38939;47.824;14.642;2022-07-10T00:10:30;97316.22;;;17.30;85.05
39769;BME280;38939;47.824;14.642;2022-07-10T00:11:32;97309.09;;;17.30;84.78
39769;BME280;38939;47.824;14.642;2022-07-10T00:12:34;97305.66;;;17.30;84.88
39769;BME280;38939;47.824;14.642;2022-07-10T00:13:36;97303.03;;;17.30;85.07
39769;BME280;38939;47.824;14.642;2022-07-10T00:14:38;97292.47;;;17.30;85.29
39769;BME280;38939;47.824;14.642;2022-07-10T00:15:40;97304.63;;;17.31;85.07
39769;BME280;38939;47.824;14.642;2022-07-10T00:16:42;97300.16;;;17.31;85.33
39769;BME280;38939;47.824;14.642;2022-07-10T00:17:45;97296.25;;;17.34;85.40
39769;BME280;38939;47.824;14.642;2022-07-10T00:18:47;97294.41;;;17.34;85.10
39769;BME280;38939;47.824;14.642;2022-07-10T00:19:49;97289.59;;;17.31;85.06
39769;BME280;38939;47.824;14.642;2022-07-10T00:20:51;97289.59;;;17.31;84.97
39769;BME280;38939;47.824;14.642;2022-07-10T00:21:53;97283.28;;;17.32;85.18
39769;BME280;38939;47.824;14.642;2022-07-10T00:22:55;97291.75;;;17.34;85.28
39769;BME280;38939;47.824;14.642;2022-07-10T00:24:02;97286.47;;;17.34;85.34
39769;BME280;38939;47.824;14.642;2022-07-10T00:25:06;97289.13;;;17.34;85.30
39769;BME280;38939;47.824;14.642;2022-07-10T00:26:08;97284.06;;;17.33;85.39
39769;BME280;38939;47.824;14.642;2022-07-10T00:27:10;97286.72;;;17.33;85.22
39769;BME280;38939;47.824;14.642;2022-07-10T00:28:12;97280.41;;;17.34;85.19
39769;BME280;38939;47.824;14.642;2022-07-10T00:29:15;97280.19;;;17.35;84.99
39769;BME280;38939;47.824;14.642;2022-07-10T00:30:17;97283.63;;;17.36;85.24
39769;BME280;38939;47.824;14.642;2022-07-10T00:31:19;97276.50;;;17.36;84.83
39769;BME280;38939;47.824;14.642;2022-07-10T00:32:21;97285.19;;;17.37;85.26
39769;BME280;38939;47.824;14.642;2022-07-10T00:33:23;97279.94;;;17.37;84.93
39769;BME280;38939;47.824;14.642;2022-07-10T00:34:25;97282.56;;;17.37;85.14
39769;BME280;38939;47.824;14.642;2022-07-10T00:35:27;97292.09;;;17.38;85.00
39769;BME280;38939;47.824;14.642;2022-07-10T00:36:29;97283.63;;;17.36;85.12
39769;BME280;38939;47.824;14.642;2022-07-10T00:37:32;97290.47;;;17.37;84.90
39769;BME280;38939;47.824;14.642;2022-07-10T00:38:34;97279.94;;;17.37;85.01
39769;BME280;38939;47.824;14.642;2022-07-10T00:39:37;97282.56;;;17.37;84.75
39769;BME280;38939;47.824;14.642;2022-07-10T00:40:39;97278.13;;;17.37;84.75
39769;BME280;38939;47.824;14.642;2022-07-10T00:41:41;97281.78;;;17.36;84.82
39769;BME280;38939;47.824;14.642;2022-07-10T00:42:44;97287.28;;;17.35;84.46
39769;BME280;38939;47.824;14.642;2022-07-10T00:43:58;97274.81;;;17.30;84.73
39769;BME280;38939;47.824;14.642;2022-07-10T00:45:00;97277.44;;;17.30;84.72
39769;BME280;38939;47.824;14.642;2022-07-10T00:46:02;97271.38;;;17.30;84.58
39769;BME280;38939;47.824;14.642;2022-07-10T00:47:05;97277.44;;;17.30;84.90
39769;BME280;38939;47.824;14.642;2022-07-10T00:48:08;97272.97;;;17.31;84.84
39769;BME280;38939;47.824;14.642;2022-07-10T00:49:13;97271.03;;;17.26;85.08
39769;BME280;38939;47.824;14.642;2022-07-10T00:50:15;97267.84;;;17.24;85.22
39769;BME280;38939;47.824;14.642;2022-07-10T00:51:20;97265.69;;;17.21;85.21
39769;BME280;38939;47.824;14.642;2022-07-10T00:52:23;97263.84;;;17.22;85.22
39769;BME280;38939;47.824;14.642;2022-07-10T00:53:25;97258.34;;;17.23;85.22
39769;BME280;38939;47.824;14.642;2022-07-10T00:54:29;97253.84;;;17.24;85.31
39769;BME280;38939;47.824;14.642;2022-07-10T00:55:32;97247.53;;;17.25;85.05
39769;BME280;38939;47.824;14.642;2022-07-10T00:56:35;97253.63;;;17.25;85.16
39769;BME280;38939;47.824;14.642;2022-07-10T00:57:38;97251.00;;;17.25;85.39
39769;BME280;38939;47.824;14.642;2022-07-10T00:58:41;97260.47;;;17.26;85.48
39769;BME280;38939;47.824;14.642;2022-07-10T00:59:44;97257.84;;;17.26;85.60
39769;BME280;38939;47.824;14.642;2022-07-10T01:00:47;97260.47;;;17.26;85.41
39769;BME280;38939;47.824;14.642;2022-07-10T01:01:52;97258.91;;;17.25;85.72
39769;BME280;38939;47.824;14.642;2022-07-10T01:02:54;97253.84;;;17.24;85.52
39769;BME280;38939;47.824;14.642;2022-07-10T01:03:56;97256.50;;;17.24;85.87
39769;BME280;38939;47.824;14.642;2022-07-10T01:04:58;97240.81;;;17.17;85.88
39769;BME280;38939;47.824;14.642;2022-07-10T01:06:00;97240.47;;;17.13;86.14
39769;BME280;38939;47.824;14.642;2022-07-10T01:07:02;97245.75;;;17.13;86.37
39769;BME280;38939;47.824;14.642;2022-07-10T01:08:04;97243.91;;;17.14;86.23
39769;BME280;38939;47.824;14.642;2022-07-10T01:09:07;97244.41;;;17.11;86.39
39769;BME280;38939;47.824;14.642;2022-07-10T01:10:10;97238.00;;;17.07;86.49
39769;BME280;38939;47.824;14.642;2022-07-10T01:11:14;97244.28;;;17.06;86.84
39769;BME280;38939;47.824;14.642;2022-07-10T01:12:17;97232.72;;;17.07;86.67
39769;BME280;38939;47.824;14.642;2022-07-10T01:13:19;97231.66;;;17.08;86.73
39769;BME280;38939;47.824;14.642;2022-07-10T01:14:22;97245.41;;;17.10;86.70
39769;BME280;38939;47.824;14.642;2022-07-10T01:15:24;97238.06;;;17.12;86.45
39769;BME280;38939;47.824;14.642;2022-07-10T01:16:26;97234.41;;;17.13;86.31
39769;BME280;38939;47.824;14.642;2022-07-10T01:17:29;97231.66;;;17.08;87.26
39769;BME280;38939;47.824;14.642;2022-07-10T01:18:32;97233.16;;;17.04;87.10
39769;BME280;38939;47.824;14.642;2022-07-10T01:19:34;97232.59;;;17.02;86.84
39769;BME280;38939;47.824;14.642;2022-07-10T01:20:36;97231.56;;;17.03;86.95
39769;BME280;38939;47.824;14.642;2022-07-10T01:21:38;97226.84;;;17.05;86.46
39769;BME280;38939;47.824;14.642;2022-07-10T01:22:40;97235.81;;;17.04;86.53
39769;BME280;38939;47.824;14.642;2022-07-10T01:23:43;97235.81;;;17.04;86.88
39769;BME280;38939;47.824;14.642;2022-07-10T01:24:45;97234.19;;;17.03;86.77
39769;BME280;38939;47.824;14.642;2022-07-10T01:25:48;97226.28;;;17.03;86.87
39769;BME280;38939;47.824;14.642;2022-07-10T01:26:50;97233.41;;;17.02;87.17
39769;BME280;38939;47.824;14.642;2022-07-10T01:27:52;97230.75;;;17.02;87.11
39769;BME280;38939;47.824;14.642;2022-07-10T01:28:54;97234.19;;;17.03;87.19
39769;BME280;38939;47.824;14.642;2022-07-10T01:29:57;97234.19;;;17.03;87.48
39769;BME280;38939;47.824;14.642;2022-07-10T01:31:00;97235.47;;;17.00;87.76
39769;BME280;38939;47.824;14.642;2022-07-10T01:32:04;97235.94;;;16.97;87.59
39769;BME280;38939;47.824;14.642;2022-07-10T01:33:07;97236.75;;;16.97;87.27
39769;BME280;38939;47.824;14.642;2022-07-10T01:34:09;97239.94;;;16.99;87.28
39769;BME280;38939;47.824;14.642;2022-07-10T01:35:11;97231.81;;;17.01;86.85
39769;BME280;38939;47.824;14.642;2022-07-10T01:36:13;97234.19;;;17.03;86.81
39769;BME280;38939;47.824;14.642;2022-07-10T01:37:15;97229.75;;;17.03;86.99
39769;BME280;38939;47.824;14.642;2022-07-10T01:38:17;97229.75;;;17.03;86.87
39769;BME280;38939;47.824;14.642;2022-07-10T01:39:19;97223.41;;;17.04;86.65
39769;BME280;38939;47.824;14.642;2022-07-10T01:40:21;97226.06;;;17.04;87.12
39769;BME280;38939;47.824;14.642;2022-07-10T01:41:23;97226.63;;;17.06;86.92
39769;BME280;38939;47.824;14.642;2022-07-10T01:42:26;97221.56;;;17.05;86.85
39769;BME280;38939;47.824;14.642;2022-07-10T01:43:28;97215.50;;;17.04;86.86
39769;BME280;38939;47.824;14.642;2022-07-10T01:44:30;97220.00;;;17.04;86.99
39769;BME280;38939;47.824;14.642;2022-07-10T01:45:32;97218.16;;;17.04;86.97
39769;BME280;38939;47.824;14.642;2022-07-10T01:46:34;97220.78;;;17.04;86.92
39769;BME280;38939;47.824;14.642;2022-07-10T01:47:36;97220.78;;;17.04;86.92
39769;BME280;38939;47.824;14.642;2022-07-10T01:48:39;97214.72;;;17.04;86.80
39769;BME280;38939;47.824;14.642;2022-07-10T01:49:42;97216.78;;;17.02;87.13
39769;BME280;38939;47.824;14.642;2022-07-10T01:50:44;97218.84;;;16.99;87.66
39769;BME280;38939;47.824;14.642;2022-07-10T01:51:46;97227.47;;;16.95;88.01
39769;BME280;38939;47.824;14.642;2022-07-10T01:52:48;97233.53;;;16.95;87.78
39769;BME280;38939;47.824;14.642;2022-07-10T01:53:50;97230.69;;;16.97;87.77
39769;BME280;38939;47.824;14.642;2022-07-10T01:54:52;97229.41;;;16.99;87.79
39769;BME280;38939;47.824;14.642;2022-07-10T01:55:55;97219.66;;;17.00;87.56
39769;BME280;38939;47.824;14.642;2022-07-10T01:56:57;97226.78;;;16.99;88.08
39769;BME280;38939;47.824;14.642;2022-07-10T01:57:59;97232.03;;;16.99;88.00
39769;BME280;38939;47.824;14.642;2022-07-10T01:59:01;97231.47;;;16.97;88.20
39769;BME280;38939;47.824;14.642;2022-07-10T02:00:05;97227.00;;;16.98;88.03
39769;BME280;38939;47.824;14.642;2022-07-10T02:01:08;97222.50;;;16.98;87.85
39769;BME280;38939;47.824;14.642;2022-07-10T02:02:10;97222.50;;;16.98;87.63
39769;BME280;38939;47.824;14.642;2022-07-10T02:03:13;97220.94;;;16.97;87.57
39769;BME280;38939;47.824;14.642;2022-07-10T02:04:34;97221.94;;;16.96;87.63
39769;BME280;38939;47.824;14.642;2022-07-10T02:05:45;97218.19;;;16.92;88.30
39769;BME280;38939;47.824;14.642;2022-07-10T02:06:47;97216.03;;;16.89;88.35
39769;BME280;38939;47.824;14.642;2022-07-10T02:07:49;97217.38;;;16.92;88.48
39769;BME280;38939;47.824;14.642;2022-07-10T02:08:51;97209.25;;;16.93;88.25
39769;BME280;38939;47.824;14.642;2022-07-10T02:09:53;97207.97;;;16.96;87.66
39769;BME280;38939;47.824;14.642;2022-07-10T02:10:55;97203.28;;;16.98;87.92
39769;BME280;38939;47.824;14.642;2022-07-10T02:11:57;97207.53;;;16.99;87.66
39769;BME280;38939;47.824;14.642;2022-07-10T02:12:59;97206.69;;;16.98;87.92
39769;BME280;38939;47.824;14.642;2022-07-10T02:14:01;97209.34;;;16.98;87.87
39769;BME280;38939;47.824;14.642;2022-07-10T02:15:03;97211.97;;;16.98;87.84
39769;BME280;38939;47.824;14.642;2022-07-10T02:16:05;97211.97;;;16.98;87.42
39769;BME280;38939;47.824;14.642;2022-07-10T02:17:08;97213.59;;;16.99;87.65
39769;BME280;38939;47.824;14.642;2022-07-10T02:18:11;97214.59;;;16.98;87.78
39769;BME280;38939;47.824;14.642;2022-07-10T02:19:13;97214.88;;;16.97;87.62
39769;BME280;38939;47.824;14.642;2022-07-10T02:20:15;97214.88;;;16.97;87.79
39769;BME280;38939;47.824;14.642;2022-07-10T02:21:17;97212.47;;;16.95;87.51
39769;BME280;38939;47.824;14.642;2022-07-10T02:22:20;97211.88;;;16.93;87.68
39769;BME280;38939;47.824;14.642;2022-07-10T02:23:22;97219.00;;;16.93;87.78
39769;BME280;38939;47.824;14.642;2022-07-10T02:24:25;97208.47;;;16.93;87.48
39769;BME280;38939;47.824;14.642;2022-07-10T02:25:27;97218.53;;;16.96;87.55
39769;BME280;38939;47.824;14.642;2022-07-10T02:26:29;97215.31;;;16.94;87.55
39769;BME280;38939;47.824;14.642;2022-07-10T02:27:31;97212.69;;;16.94;87.65
39769;BME280;38939;47.824;14.642;2022-07-10T02:28:33;97208.19;;;16.94;87.40
39769;BME280;38939;47.824;14.642;2022-07-10T02:29:35;97209.03;;;16.95;87.15
39769;BME280;38939;47.824;14.642;2022-07-10T02:30:37;97211.41;;;16.96;87.62
39769;BME280;38939;47.824;14.642;2022-07-10T02:31:39;97213.25;;;16.96;87.40
39769;BME280;38939;47.824;14.642;2022-07-10T02:32:44;97213.25;;;16.96;87.40
39769;BME280;38939;47.824;14.642;2022-07-10T02:33:46;97209.81;;;16.95;87.30
39769;BME280;38939;47.824;14.642;2022-07-10T02:34:48;97210.38;;;16.97;87.31
39769;BME280;38939;47.824;14.642;2022-07-10T02:35:51;97206.97;;;16.97;87.51
39769;BME280;38939;47.824;14.642;2022-07-10T02:36:53;97206.69;;;16.98;87.44
39769;BME280;38939;47.824;14.642;2022-07-10T02:37:55;97206.69;;;16.98;87.51
39769;BME280;38939;47.824;14.642;2022-07-10T02:38:57;97200.41;;;16.99;87.35
39769;BME280;38939;47.824;14.642;2022-07-10T02:39:59;97201.44;;;16.98;87.54
39769;BME280;38939;47.824;14.642;2022-07-10T02:41:01;97204.06;;;16.98;87.44
39769;BME280;38939;47.824;14.642;2022-07-10T02:42:03;97199.34;;;17.00;87.46
39769;BME280;38939;47.824;14.642;2022-07-10T02:43:05;97199.34;;;17.00;87.33
39769;BME280;38939;47.824;14.642;2022-07-10T02:44:07;97196.97;;;16.99;87.63
39769;BME280;38939;47.824;14.642;2022-07-10T02:45:09;97197.19;;;16.97;87.94
39769;BME280;38939;47.824;14.642;2022-07-10T02:46:12;97196.41;;;16.97;87.96
39769;BME280;38939;47.824;14.642;2022-07-10T02:47:14;97199.03;;;16.97;88.05
39769;BME280;38939;47.824;14.642;2022-07-10T02:48:16;97200.84;;;16.96;87.82
39769;BME280;38939;47.824;14.642;2022-07-10T02:49:19;97199.84;;;16.97;87.82
39769;BME280;38939;47.824;14.642;2022-07-10T02:50:21;97194.56;;;16.97;87.95
39769;BME280;38939;47.824;14.642;2022-07-10T02:51:23;97196.16;;;16.98;87.81
39769;BME280;38939;47.824;14.642;2022-07-10T02:52:25;97193.50;;;16.98;87.82
39769;BME280;38939;47.824;14.642;2022-07-10T02:53:28;97193.78;;;16.97;87.81
39769;BME280;38939;47.824;14.642;2022-07-10T02:54:30;97185.31;;;16.95;88.01
39769;BME280;38939;47.824;14.642;2022-07-10T02:55:32;97182.41;;;16.96;87.99
39769;BME280;38939;47.824;14.642;2022-07-10T02:56:34;97182.88;;;16.93;87.82
39769;BME280;38939;47.824;14.642;2022-07-10T02:57:38;97191.03;;;16.92;88.19
39769;BME280;38939;47.824;14.642;2022-07-10T02:58:40;97185.75;;;16.92;88.30
39769;BME280;38939;47.824;14.642;2022-07-10T02:59:42;97176.00;;;16.92;88.21
39769;BME280;38939;47.824;14.642;2022-07-10T03:00:45;97193.22;;;16.95;88.13
39769;BME280;38939;47.824;14.642;2022-07-10T03:01:47;97188.50;;;16.97;88.17
39769;BME280;38939;47.824;14.642;2022-07-10T03:02:49;97181.38;;;16.97;87.98
39769;BME280;38939;47.824;14.642;2022-07-10T03:03:51;97184.03;;;16.97;87.89
39769;BME280;38939;47.824;14.642;2022-07-10T03:04:53;97188.50;;;16.97;87.88
39769;BME280;38939;47.824;14.642;2022-07-10T03:05:55;97181.38;;;16.97;87.91
39769;BME280;38939;47.824;14.642;2022-07-10T03:06:57;97178.53;;;16.99;88.03
39769;BME280;38939;47.824;14.642;2022-07-10T03:07:59;97181.94;;;16.99;88.02
39769;BME280;38939;47.824;14.642;2022-07-10T03:09:01;97183.78;;;16.99;87.69
39769;BME280;38939;47.824;14.642;2022-07-10T03:10:04;97183.53;;;17.00;87.90
39769;BME280;38939;47.824;14.642;2022-07-10T03:11:06;97178.25;;;17.00;87.39
39769;BME280;38939;47.824;14.642;2022-07-10T03:12:08;97181.16;;;16.99;87.77
39769;BME280;38939;47.824;14.642;2022-07-10T03:13:10;97173.00;;;17.00;87.58
39769;BME280;38939;47.824;14.642;2022-07-10T03:14:12;97183.31;;;17.02;87.52
39769;BME280;38939;47.824;14.642;2022-07-10T03:15:14;97175.88;;;16.99;87.35
39769;BME280;38939;47.824;14.642;2022-07-10T03:16:16;97178.53;;;16.99;87.15
39769;BME280;38939;47.824;14.642;2022-07-10T03:17:18;97181.16;;;16.99;87.67
39769;BME280;38939;47.824;14.642;2022-07-10T03:18:20;97182.97;;;16.98;87.55
39769;BME280;38939;47.824;14.642;2022-07-10T03:19:22;97180.34;;;16.98;87.82
39769;BME280;38939;47.824;14.642;2022-07-10T03:20:25;97186.88;;;16.96;87.79
39769;BME280;38939;47.824;14.642;2022-07-10T03:21:27;97185.31;;;16.95;87.87
39769;BME280;38939;47.824;14.642;2022-07-10T03:22:29;97182.66;;;16.95;87.77
39769;BME280;38939;47.824;14.642;2022-07-10T03:23:32;97184.03;;;16.97;87.85
39769;BME280;38939;47.824;14.642;2022-07-10T03:24:34;97181.38;;;16.97;87.63
39769;BME280;38939;47.824;14.642;2022-07-10T03:25:37;97174.50;;;16.96;87.58
39769;BME280;38939;47.824;14.642;2022-07-10T03:26:39;97164.22;;;16.95;87.36
39769;BME280;38939;47.824;14.642;2022-07-10T03:27:41;97173.94;;;16.94;87.22
39769;BME280;38939;47.824;14.642;2022-07-10T03:28:43;97180.25;;;16.93;87.12
39769;BME280;38939;47.824;14.642;2022-07-10T03:29:45;97182.88;;;16.93;87.23
39769;BME280;38939;47.824;14.642;2022-07-10T03:30:48;97180.47;;;16.92;87.19
39769;BME280;38939;47.824;14.642;2022-07-10T03:31:50;97182.31;;;16.91;87.05
39769;BME280;38939;47.824;14.642;2022-07-10T03:32:52;97182.56;;;16.90;87.20
39769;BME280;38939;47.824;14.642;2022-07-10T03:33:54;97184.16;;;16.91;87.00
39769;BME280;38939;47.824;14.642;2022-07-10T03:34:56;97182.78;;;16.88;86.92
39769;BME280;38939;47.824;14.642;2022-07-10T03:35:58;97186.47;;;16.87;87.12
39769;BME280;38939;47.824;14.642;2022-07-10T03:37:03;97186.25;;;16.89;87.11
39769;BME280;38939;47.824;14.642;2022-07-10T03:38:05;97188.06;;;16.88;87.11
39769;BME280;38939;47.824;14.642;2022-07-10T03:39:07;97184.63;;;16.88;87.18
39769;BME280;38939;47.824;14.642;2022-07-10T03:40:10;97188.06;;;16.88;87.66
39769;BME280;38939;47.824;14.642;2022-07-10T03:41:12;97181.19;;;16.87;87.69
39769;BME280;38939;47.824;14.642;2022-07-10T03:42:15;97183.28;;;16.85;88.03
39769;BME280;38939;47.824;14.642;2022-07-10T03:43:17;97188.53;;;16.85;88.17
39769;BME280;38939;47.824;14.642;2022-07-10T03:44:18;97178.22;;;16.84;88.33
39769;BME280;38939;47.824;14.642;2022-07-10T03:45:20;97179.50;;;16.81;88.22
39769;BME280;38939;47.824;14.642;2022-07-10T03:46:22;97177.28;;;16.78;88.42
39769;BME280;38939;47.824;14.642;2022-07-10T03:47:25;97170.66;;;16.75;88.31
39769;BME280;38939;47.824;14.642;2022-07-10T03:48:27;97172.84;;;16.78;88.49
39769;BME280;38939;47.824;14.642;2022-07-10T03:49:29;97177.84;;;16.80;88.58
39769;BME280;38939;47.824;14.642;2022-07-10T03:50:31;97174.22;;;16.81;88.38
39769;BME280;38939;47.824;14.642;2022-07-10T03:51:33;97182.13;;;16.81;88.19
39769;BME280;38939;47.824;14.642;2022-07-10T03:52:35;97185.19;;;16.78;88.62
39769;BME280;38939;47.824;14.642;2022-07-10T03:53:37;97175.72;;;16.77;88.41
39769;BME280;38939;47.824;14.642;2022-07-10T03:54:39;97173.88;;;16.77;88.25
39769;BME280;38939;47.824;14.642;2022-07-10T03:55:41;97180.75;;;16.78;88.13
39769;BME280;38939;47.824;14.642;2022-07-10T03:56:43;97178.91;;;16.79;87.95
39769;BME280;38939;47.824;14.642;2022-07-10T03:58:04;97178.44;;;16.82;88.16
39769;BME280;38939;47.824;14.642;2022-07-10T03:59:06;97181.09;;;16.82;88.16
39769;BME280;38939;47.824;14.642;2022-07-10T04:00:08;97191.28;;;16.78;88.02
39769;BME280;38939;47.824;14.642;2022-07-10T04:01:10;97193.94;;;16.78;87.96
39769;BME280;38939;47.824;14.642;2022-07-10T04:02:12;97190.25;;;16.79;87.84
39769;BME280;38939;47.824;14.642;2022-07-10T04:03:15;97190.03;;;16.81;87.78
39769;BME280;38939;47.824;14.642;2022-07-10T04:04:17;97194.50;;;16.80;87.72
39769;BME280;38939;47.824;14.642;2022-07-10T04:05:19;97185.56;;;16.82;88.06
39769;BME280;38939;47.824;14.642;2022-07-10T04:06:21;97192.69;;;16.81;88.14
39769;BME280;38939;47.824;14.642;2022-07-10T04:07:23;97183.94;;;16.80;88.35
39769;BME280;38939;47.824;14.642;2022-07-10T04:08:26;97192.53;;;16.76;88.62
39769;BME280;38939;47.824;14.642;2022-07-10T04:09:28;97193.59;;;16.75;89.14
39769;BME280;38939;47.824;14.642;2022-07-10T04:10:30;97191.75;;;16.75;88.85
39769;BME280;38939;47.824;14.642;2022-07-10T04:11:33;97190.72;;;16.76;88.48
39769;BME280;38939;47.824;14.642;2022-07-10T04:12:35;97182.56;;;16.78;88.63
39769;BME280;38939;47.824;14.642;2022-07-10T04:13:37;97184.19;;;16.79;88.72
39769;BME280;38939;47.824;14.642;2022-07-10T04:14:39;97182.34;;;16.79;88.54
39769;BME280;38939;47.824;14.642;2022-07-10T04:15:41;97174.22;;;16.81;88.56
39769;BME280;38939;47.824;14.642;2022-07-10T04:16:43;97173.75;;;16.84;88.43
39769;BME280;38939;47.824;14.642;2022-07-10T04:17:46;97174.56;;;16.85;88.03
39769;BME280;38939;47.824;14.642;2022-07-10T04:18:49;97171.69;;;16.86;88.19
39769;BME280;38939;47.824;14.642;2022-07-10T04:19:51;97174.09;;;16.88;87.91
39769;BME280;38939;47.824;14.642;2022-07-10T04:20:53;97176.94;;;16.86;88.04
39769;BME280;38939;47.824;14.642;2022-07-10T04:21:55;97179.59;;;16.86;87.84
39769;BME280;38939;47.824;14.642;2022-07-10T04:22:57;97168.97;;;16.81;87.51
39769;BME280;38939;47.824;14.642;2022-07-10T04:23:59;97170.78;;;16.80;87.82
39769;BME280;38939;47.824;14.642;2022-07-10T04:25:08;97166.53;;;16.79;87.66
39769;BME280;38939;47.824;14.642;2022-07-10T04:26:10;97174.22;;;16.81;87.76
39769;BME280;38939;47.824;14.642;2022-07-10T04:27:12;97171.38;;;16.83;87.83
39769;BME280;38939;47.824;14.642;2022-07-10T04:28:14;97170.53;;;16.82;87.81
39769;BME280;38939;47.824;14.642;2022-07-10T04:29:16;97182.94;;;16.82;87.73
39769;BME280;38939;47.824;14.642;2022-07-10T04:30:18;97174.22;;;16.81;87.61
39769;BME280;38939;47.824;14.642;2022-07-10T04:31:20;97176.03;;;16.80;87.57
39769;BME280;38939;47.824;14.642;2022-07-10T04:32:23;97172.84;;;16.78;87.56
39769;BME280;38939;47.824;14.642;2022-07-10T04:33:25;97171.44;;;16.76;87.81
39769;BME280;38939;47.824;14.642;2022-07-10T04:34:27;97170.66;;;16.75;87.78
39769;BME280;38939;47.824;14.642;2022-07-10T04:35:29;97170.09;;;16.73;88.11
39769;BME280;38939;47.824;14.642;2022-07-10T04:36:32;97167.47;;;16.73;88.10
39769;BME280;38939;47.824;14.642;2022-07-10T04:37:34;97164.59;;;16.75;88.35
39769;BME280;38939;47.824;14.642;2022-07-10T04:38:36;97162.53;;;16.77;88.18
39769;BME280;38939;47.824;14.642;2022-07-10T04:39:39;97165.72;;;16.79;88.22
39769;BME280;38939;47.824;14.642;2022-07-10T04:40:41;97162.03;;;16.80;88.37
39769;BME280;38939;47.824;14.642;2022-07-10T04:41:43;97160.81;;;16.83;88.18
39769;BME280;38939;47.824;14.642;2022-07-10T04:42:45;97154.72;;;16.82;88.27
39769;BME280;38939;47.824;14.642;2022-07-10T04:43:47;97157.38;;;16.82;88.00
39769;BME280;38939;47.824;14.642;2022-07-10T04:44:49;97153.16;;;16.81;87.59
39769;BME280;38939;47.824;14.642;2022-07-10T04:45:51;97151.19;;;16.76;88.02
39769;BME280;38939;47.824;14.642;2022-07-10T04:46:53;97159.09;;;16.76;88.12
39769;BME280;38939;47.824;14.642;2022-07-10T04:47:55;97162.53;;;16.77;88.08
39769;BME280;38939;47.824;14.642;2022-07-10T04:48:57;97157.25;;;16.77;87.94
39769;BME280;38939;47.824;14.642;2022-07-10T04:49:59;97159.91;;;16.77;87.89
39769;BME280;38939;47.824;14.642;2022-07-10T04:51:01;97161.47;;;16.78;88.06
39769;BME280;38939;47.824;14.642;2022-07-10T04:52:04;97162.31;;;16.78;88.12
39769;BME280;38939;47.824;14.642;2022-07-10T04:53:06;97160.47;;;16.79;87.89
39769;BME280;38939;47.824;14.642;2022-07-10T04:54:08;97169.94;;;16.80;87.87
39769;BME280;38939;47.824;14.642;2022-07-10T04:55:10;97163.69;;;16.81;87.96
39769;BME280;38939;47.824;14.642;2022-07-10T04:56:12;97162.63;;;16.82;88.09
39769;BME280;38939;47.824;14.642;2022-07-10T04:57:14;97158.75;;;16.85;87.93
39769;BME280;38939;47.824;14.642;2022-07-10T04:58:16;97153.22;;;16.86;87.89
39769;BME280;38939;47.824;14.642;2022-07-10T04:59:18;97166.19;;;16.88;88.01
39769;BME280;38939;47.824;14.642;2022-07-10T05:00:20;97160.13;;;16.87;87.98
39769;BME280;38939;47.824;14.642;2022-07-10T05:01:22;97162.75;;;16.87;87.81
39769;BME280;38939;47.824;14.642;2022-07-10T05:02:24;97171.69;;;16.86;88.01
39769;BME280;38939;47.824;14.642;2022-07-10T05:03:28;97159.31;;;16.87;87.86
39769;BME280;38939;47.824;14.642;2022-07-10T05:04:30;97156.44;;;16.88;87.86
39769;BME280;38939;47.824;14.642;2022-07-10T05:05:32;97161.69;;;16.88;87.98
39769;BME280;38939;47.824;14.642;2022-07-10T05:06:34;97158.84;;;16.90;87.98
39769;BME280;38939;47.824;14.642;2022-07-10T05:07:36;97154.84;;;16.87;88.07
39769;BME280;38939;47.824;14.642;2022-07-10T05:08:38;97155.56;;;16.83;88.20
39769;BME280;38939;47.824;14.642;2022-07-10T05:09:41;97155.97;;;16.79;88.37
39769;BME280;38939;47.824;14.642;2022-07-10T05:10:44;97154.97;;;16.80;88.63
39769;BME280;38939;47.824;14.642;2022-07-10T05:11:47;97153.94;;;16.82;88.64
39769;BME280;38939;47.824;14.642;2022-07-10T05:12:49;97158.63;;;16.79;88.51
39769;BME280;38939;47.824;14.642;2022-07-10T05:13:51;97163.31;;;16.77;88.15
39769;BME280;38939;47.824;14.642;2022-07-10T05:14:52;97165.16;;;16.77;88.33
39769;BME280;38939;47.824;14.642;2022-07-10T05:15:54;97168.59;;;16.77;88.36
39769;BME280;38939;47.824;14.642;2022-07-10T05:16:56;97171.78;;;16.79;88.43
39769;BME280;38939;47.824;14.642;2022-07-10T05:17:59;97177.84;;;16.80;88.47
39769;BME280;38939;47.824;14.642;2022-07-10T05:19:01;97170.53;;;16.82;88.35
39769;BME280;38939;47.824;14.642;2022-07-10T05:20:03;97183.72;;;16.82;88.17
39769;BME280;38939;47.824;14.642;2022-07-10T05:21:06;97177.44;;;16.83;88.39
39769;BME280;38939;47.824;14.642;2022-07-10T05:22:08;97184.28;;;16.84;88.21
39769;BME280;38939;47.824;14.642;2022-07-10T05:23:11;97185.91;;;16.85;88.25
39769;BME280;38939;47.824;14.642;2022-07-10T05:24:13;97187.50;;;16.86;88.07
39769;BME280;38939;47.824;14.642;2022-07-10T05:25:15;97185.91;;;16.85;88.45
39769;BME280;38939;47.824;14.642;2022-07-10T05:26:17;97186.94;;;16.84;88.17